sensor_id;sensor_type;location;lat;lon;timestamp;P1;durP1;ratioP1;P2;durP2;ratioP2
9449;SDS011;4763;48.370;10.874;2022-12-07T00:00:50;8.30;;;6.17;;
9449;SDS011;4763;48.370;10.874;2022-12-07T00:03:18;9.93;;;6.40;;
9449;SDS011;4763;48.370;10.874;2022-12-07T00:05:45;11.50;;;6.03;;
9449;SDS011;4763;48.370;10.874;2022-12-07T00:08:12;7.30;;;5.30;;
9449;SDS011;4763;48.370;10.874;2022-12-07T00:10:39;8.53;;;5.83;;
9449;SDS011;4763;48.370;10.874;2022-12-07T00:13:06;8.60;;;5.83;;
9449;SDS011;4763;48.370;10.874;2022-12-07T00:15:33;7.27;;;5.40;;
9449;SDS011;4763;48.370;10.874;2022-12-07T00:18:00;7.60;;;5.30;;
9449;SDS011;4763;48.370;10.874;2022-12-07T00:20:29;10.60;;;7.07;;
9449;SDS011;4763;48.370;10.874;2022-12-07T00:22:56;9.00;;;5.80;;
9449;SDS011;4763;48.370;10.874;2022-12-07T00:25:22;8.80;;;5.60;;
9449;SDS011;4763;48.370;10.874;2022-12-07T00:27:49;7.97;;;6.10;;
9449;SDS011;4763;48.370;10.874;2022-12-07T00:30:16;8.07;;;5.70;;
9449;SDS011;4763;48.370;10.874;2022-12-07T00:32:43;9.70;;;5.43;;
9449;SDS011;4763;48.370;10.874;2022-12-07T00:35:10;9.33;;;6.50;;
9449;SDS011;4763;48.370;10.874;2022-12-07T00:37:38;7.97;;;6.13;;
9449;SDS011;4763;48.370;10.874;2022-12-07T00:40:05;7.80;;;5.90;;
9449;SDS011;4763;48.370;10.874;2022-12-07T00:42:32;8.50;;;5.87;;
9449;SDS011;4763;48.370;10.874;2022-12-07T00:44:59;8.70;;;6.07;;
9449;SDS011;4763;48.370;10.874;2022-12-07T00:47:26;7.27;;;5.23;;
9449;SDS011;4763;48.370;10.874;2022-12-07T00:49:53;8.03;;;5.50;;
9449;SDS011;4763;48.370;10.874;2022-12-07T00:52:20;7.07;;;5.07;;
9449;SDS011;4763;48.370;10.874;2022-12-07T00:54:48;9.60;;;6.80;;
9449;SDS011;4763;48.370;10.874;2022-12-07T00:57:15;7.63;;;5.20;;
9449;SDS011;4763;48.370;10.874;2022-12-07T00:59:41;8.57;;;6.07;;
9449;SDS011;4763;48.370;10.874;2022-12-07T01:02:08;8.03;;;5.57;;
9449;SDS011;4763;48.370;10.874;2022-12-07T01:04:35;9.03;;;6.10;;
9449;SDS011;4763;48.370;10.874;2022-12-07T01:07:02;7.57;;;5.37;;
9449;SDS011;4763;48.370;10.874;2022-12-07T01:09:28;9.83;;;6.10;;
9449;SDS011;4763;48.370;10.874;2022-12-07T01:11:57;8.87;;;6.57;;
9449;SDS011;4763;48.370;10.874;2022-12-07T01:14:23;7.70;;;5.73;;
9449;SDS011;4763;48.370;10.874;2022-12-07T01:16:50;8.60;;;5.90;;
9449;SDS011;4763;48.370;10.874;2022-12-07T01:19:17;7.17;;;5.60;;
9449;SDS011;4763;48.370;10.874;2022-12-07T01:21:43;8.40;;;5.50;;
9449;SDS011;4763;48.370;10.874;2022-12-07T01:24:10;8.70;;;5.70;;
9449;SDS011;4763;48.370;10.874;2022-12-07T01:26:37;10.00;;;6.13;;
9449;SDS011;4763;48.370;10.874;2022-12-07T01:29:06;8.43;;;5.87;;
9449;SDS011;4763;48.370;10.874;2022-12-07T01:31:32;9.53;;;5.67;;
9449;SDS011;4763;48.370;10.874;2022-12-07T01:33:59;8.90;;;5.60;;
9449;SDS011;4763;48.370;10.874;2022-12-07T01:36:27;7.67;;;5.60;;
9449;SDS011;4763;48.370;10.874;2022-12-07T01:38:56;12.97;;;5.83;;
9449;SDS011;4763;48.370;10.874;2022-12-07T01:41:25;8.53;;;5.73;;
9449;SDS011;4763;48.370;10.874;2022-12-07T01:44:12;8.60;;;5.73;;
9449;SDS011;4763;48.370;10.874;2022-12-07T01:46:43;7.77;;;6.00;;
9449;SDS011;4763;48.370;10.874;2022-12-07T01:49:12;8.37;;;5.43;;
9449;SDS011;4763;48.370;10.874;2022-12-07T01:51:42;9.53;;;6.43;;
9449;SDS011;4763;48.370;10.874;2022-12-07T01:54:11;8.40;;;6.03;;
9449;SDS011;4763;48.370;10.874;2022-12-07T01:56:40;8.33;;;5.90;;
9449;SDS011;4763;48.370;10.874;2022-12-07T01:59:11;10.23;;;6.23;;
9449;SDS011;4763;48.370;10.874;2022-12-07T02:01:39;9.53;;;6.57;;
9449;SDS011;4763;48.370;10.874;2022-12-07T02:04:06;7.60;;;5.70;;
9449;SDS011;4763;48.370;10.874;2022-12-07T02:06:33;9.03;;;6.00;;
9449;SDS011;4763;48.370;10.874;2022-12-07T02:09:02;9.80;;;6.33;;
9449;SDS011;4763;48.370;10.874;2022-12-07T02:11:29;7.90;;;5.97;;
9449;SDS011;4763;48.370;10.874;2022-12-07T02:13:56;8.13;;;5.77;;
9449;SDS011;4763;48.370;10.874;2022-12-07T02:16:27;9.67;;;6.20;;
9449;SDS011;4763;48.370;10.874;2022-12-07T02:19:09;8.57;;;6.27;;
9449;SDS011;4763;48.370;10.874;2022-12-07T02:21:59;8.57;;;6.20;;
9449;SDS011;4763;48.370;10.874;2022-12-07T02:24:39;9.23;;;6.13;;
9449;SDS011;4763;48.370;10.874;2022-12-07T02:27:18;8.27;;;6.03;;
9449;SDS011;4763;48.370;10.874;2022-12-07T02:30:00;6.90;;;5.27;;
9449;SDS011;4763;48.370;10.874;2022-12-07T02:32:30;9.63;;;5.97;;
9449;SDS011;4763;48.370;10.874;2022-12-07T02:35:07;9.07;;;6.27;;
9449;SDS011;4763;48.370;10.874;2022-12-07T02:37:38;7.50;;;5.50;;
9449;SDS011;4763;48.370;10.874;2022-12-07T02:40:09;8.63;;;6.17;;
9449;SDS011;4763;48.370;10.874;2022-12-07T02:42:43;9.13;;;6.40;;
9449;SDS011;4763;48.370;10.874;2022-12-07T02:45:15;6.67;;;5.43;;
9449;SDS011;4763;48.370;10.874;2022-12-07T02:47:46;17.60;;;6.60;;
9449;SDS011;4763;48.370;10.874;2022-12-07T02:50:17;8.77;;;6.07;;
9449;SDS011;4763;48.370;10.874;2022-12-07T02:52:45;10.50;;;6.43;;
9449;SDS011;4763;48.370;10.874;2022-12-07T02:55:12;7.80;;;6.17;;
9449;SDS011;4763;48.370;10.874;2022-12-07T02:57:46;10.27;;;6.50;;
9449;SDS011;4763;48.370;10.874;2022-12-07T03:00:21;9.43;;;6.47;;
9449;SDS011;4763;48.370;10.874;2022-12-07T03:02:53;8.60;;;6.20;;
9449;SDS011;4763;48.370;10.874;2022-12-07T03:08:18;8.67;;;6.20;;
9449;SDS011;4763;48.370;10.874;2022-12-07T03:10:54;9.43;;;6.27;;
9449;SDS011;4763;48.370;10.874;2022-12-07T03:13:25;8.23;;;6.13;;
9449;SDS011;4763;48.370;10.874;2022-12-07T03:16:00;8.93;;;5.83;;
9449;SDS011;4763;48.370;10.874;2022-12-07T03:18:32;8.40;;;5.77;;
9449;SDS011;4763;48.370;10.874;2022-12-07T03:21:02;11.20;;;6.47;;
9449;SDS011;4763;48.370;10.874;2022-12-07T03:23:32;10.00;;;6.40;;
9449;SDS011;4763;48.370;10.874;2022-12-07T03:26:01;13.10;;;7.07;;
9449;SDS011;4763;48.370;10.874;2022-12-07T03:28:31;9.43;;;6.57;;
9449;SDS011;4763;48.370;10.874;2022-12-07T03:31:05;9.63;;;6.27;;
9449;SDS011;4763;48.370;10.874;2022-12-07T03:33:39;10.13;;;6.17;;
9449;SDS011;4763;48.370;10.874;2022-12-07T03:36:11;9.33;;;6.63;;
9449;SDS011;4763;48.370;10.874;2022-12-07T03:38:44;8.90;;;5.90;;
9449;SDS011;4763;48.370;10.874;2022-12-07T03:41:14;8.67;;;6.73;;
9449;SDS011;4763;48.370;10.874;2022-12-07T03:43:46;10.73;;;6.97;;
9449;SDS011;4763;48.370;10.874;2022-12-07T03:46:17;10.47;;;6.43;;
9449;SDS011;4763;48.370;10.874;2022-12-07T03:48:51;11.83;;;7.03;;
9449;SDS011;4763;48.370;10.874;2022-12-07T03:51:24;9.47;;;6.90;;
9449;SDS011;4763;48.370;10.874;2022-12-07T03:53:57;10.03;;;6.73;;
9449;SDS011;4763;48.370;10.874;2022-12-07T03:56:29;10.00;;;6.73;;
9449;SDS011;4763;48.370;10.874;2022-12-07T03:58:57;8.50;;;6.40;;
9449;SDS011;4763;48.370;10.874;2022-12-07T04:01:26;11.67;;;7.73;;
9449;SDS011;4763;48.370;10.874;2022-12-07T04:03:53;8.50;;;6.10;;
9449;SDS011;4763;48.370;10.874;2022-12-07T04:06:20;9.23;;;6.90;;
9449;SDS011;4763;48.370;10.874;2022-12-07T04:08:47;10.70;;;6.33;;
9449;SDS011;4763;48.370;10.874;2022-12-07T04:11:14;11.20;;;6.50;;
9449;SDS011;4763;48.370;10.874;2022-12-07T04:13:40;8.40;;;6.27;;
9449;SDS011;4763;48.370;10.874;2022-12-07T04:16:26;9.73;;;6.07;;
9449;SDS011;4763;48.370;10.874;2022-12-07T04:18:53;10.27;;;7.13;;
9449;SDS011;4763;48.370;10.874;2022-12-07T04:21:20;10.10;;;7.27;;
9449;SDS011;4763;48.370;10.874;2022-12-07T04:23:46;9.67;;;7.10;;
9449;SDS011;4763;48.370;10.874;2022-12-07T04:26:13;8.60;;;6.03;;
9449;SDS011;4763;48.370;10.874;2022-12-07T04:28:40;8.93;;;6.60;;
9449;SDS011;4763;48.370;10.874;2022-12-07T04:31:07;10.10;;;6.83;;
9449;SDS011;4763;48.370;10.874;2022-12-07T04:33:36;11.17;;;7.20;;
9449;SDS011;4763;48.370;10.874;2022-12-07T04:36:03;11.03;;;6.93;;
9449;SDS011;4763;48.370;10.874;2022-12-07T04:38:31;9.83;;;6.80;;
9449;SDS011;4763;48.370;10.874;2022-12-07T04:41:03;9.07;;;6.37;;
9449;SDS011;4763;48.370;10.874;2022-12-07T04:43:31;11.17;;;7.60;;
9449;SDS011;4763;48.370;10.874;2022-12-07T04:45:58;13.23;;;7.50;;
9449;SDS011;4763;48.370;10.874;2022-12-07T04:48:24;10.03;;;7.03;;
9449;SDS011;4763;48.370;10.874;2022-12-07T04:50:53;10.57;;;7.37;;
9449;SDS011;4763;48.370;10.874;2022-12-07T04:53:20;9.67;;;6.33;;
9449;SDS011;4763;48.370;10.874;2022-12-07T04:55:47;10.57;;;7.83;;
9449;SDS011;4763;48.370;10.874;2022-12-07T04:58:13;12.73;;;8.80;;
9449;SDS011;4763;48.370;10.874;2022-12-07T05:00:40;12.77;;;8.63;;
9449;SDS011;4763;48.370;10.874;2022-12-07T05:03:07;13.00;;;8.43;;
9449;SDS011;4763;48.370;10.874;2022-12-07T05:05:34;12.13;;;7.40;;
9449;SDS011;4763;48.370;10.874;2022-12-07T05:08:02;12.27;;;7.80;;
9449;SDS011;4763;48.370;10.874;2022-12-07T05:10:29;12.63;;;7.50;;
9449;SDS011;4763;48.370;10.874;2022-12-07T05:12:55;13.33;;;8.53;;
9449;SDS011;4763;48.370;10.874;2022-12-07T05:15:22;12.50;;;8.50;;
9449;SDS011;4763;48.370;10.874;2022-12-07T05:17:49;10.97;;;7.83;;
9449;SDS011;4763;48.370;10.874;2022-12-07T05:20:17;12.30;;;7.50;;
9449;SDS011;4763;48.370;10.874;2022-12-07T05:22:44;10.70;;;8.17;;
9449;SDS011;4763;48.370;10.874;2022-12-07T05:25:12;10.83;;;7.30;;
9449;SDS011;4763;48.370;10.874;2022-12-07T05:27:39;13.07;;;7.87;;
9449;SDS011;4763;48.370;10.874;2022-12-07T05:30:06;13.70;;;8.87;;
9449;SDS011;4763;48.370;10.874;2022-12-07T05:32:33;12.57;;;7.37;;
9449;SDS011;4763;48.370;10.874;2022-12-07T05:35:00;11.60;;;8.20;;
9449;SDS011;4763;48.370;10.874;2022-12-07T05:37:27;12.07;;;8.10;;
9449;SDS011;4763;48.370;10.874;2022-12-07T05:39:54;11.30;;;8.07;;
9449;SDS011;4763;48.370;10.874;2022-12-07T05:42:22;10.43;;;7.73;;
9449;SDS011;4763;48.370;10.874;2022-12-07T05:44:48;12.63;;;8.50;;
9449;SDS011;4763;48.370;10.874;2022-12-07T05:47:16;12.97;;;8.87;;
9449;SDS011;4763;48.370;10.874;2022-12-07T05:49:42;11.80;;;7.83;;
9449;SDS011;4763;48.370;10.874;2022-12-07T05:52:10;12.70;;;8.33;;
9449;SDS011;4763;48.370;10.874;2022-12-07T05:54:37;12.27;;;8.43;;
9449;SDS011;4763;48.370;10.874;2022-12-07T05:57:04;12.43;;;7.97;;
9449;SDS011;4763;48.370;10.874;2022-12-07T05:59:32;13.87;;;8.57;;
9449;SDS011;4763;48.370;10.874;2022-12-07T06:01:58;11.97;;;8.63;;
9449;SDS011;4763;48.370;10.874;2022-12-07T06:04:28;16.27;;;7.97;;
9449;SDS011;4763;48.370;10.874;2022-12-07T06:06:55;14.17;;;8.00;;
9449;SDS011;4763;48.370;10.874;2022-12-07T06:09:23;13.07;;;8.37;;
9449;SDS011;4763;48.370;10.874;2022-12-07T06:11:51;12.37;;;8.60;;
9449;SDS011;4763;48.370;10.874;2022-12-07T06:14:37;14.40;;;8.80;;
9449;SDS011;4763;48.370;10.874;2022-12-07T06:17:04;13.93;;;8.23;;
9449;SDS011;4763;48.370;10.874;2022-12-07T06:19:31;13.87;;;8.73;;
9449;SDS011;4763;48.370;10.874;2022-12-07T06:21:58;13.23;;;9.03;;
9449;SDS011;4763;48.370;10.874;2022-12-07T06:24:25;13.20;;;8.13;;
9449;SDS011;4763;48.370;10.874;2022-12-07T06:26:52;14.00;;;7.20;;
9449;SDS011;4763;48.370;10.874;2022-12-07T06:29:22;12.87;;;8.23;;
9449;SDS011;4763;48.370;10.874;2022-12-07T06:31:52;12.33;;;8.20;;
9449;SDS011;4763;48.370;10.874;2022-12-07T06:34:20;13.00;;;8.83;;
9449;SDS011;4763;48.370;10.874;2022-12-07T06:36:48;13.40;;;8.80;;
9449;SDS011;4763;48.370;10.874;2022-12-07T06:39:16;14.27;;;9.30;;
9449;SDS011;4763;48.370;10.874;2022-12-07T06:41:44;17.07;;;9.40;;
9449;SDS011;4763;48.370;10.874;2022-12-07T06:44:10;19.97;;;10.40;;
9449;SDS011;4763;48.370;10.874;2022-12-07T06:46:37;17.27;;;9.63;;
9449;SDS011;4763;48.370;10.874;2022-12-07T06:49:05;16.00;;;10.03;;
9449;SDS011;4763;48.370;10.874;2022-12-07T06:51:32;18.87;;;9.33;;
9449;SDS011;4763;48.370;10.874;2022-12-07T06:54:01;14.67;;;9.27;;
9449;SDS011;4763;48.370;10.874;2022-12-07T06:56:28;14.13;;;9.53;;
9449;SDS011;4763;48.370;10.874;2022-12-07T06:58:55;12.83;;;9.00;;
9449;SDS011;4763;48.370;10.874;2022-12-07T07:01:22;16.57;;;9.70;;
9449;SDS011;4763;48.370;10.874;2022-12-07T07:03:48;16.90;;;10.10;;
9449;SDS011;4763;48.370;10.874;2022-12-07T07:06:19;19.00;;;10.73;;
9449;SDS011;4763;48.370;10.874;2022-12-07T07:08:46;15.50;;;9.97;;
9449;SDS011;4763;48.370;10.874;2022-12-07T07:11:13;16.40;;;10.07;;
9449;SDS011;4763;48.370;10.874;2022-12-07T07:13:40;17.10;;;9.33;;
9449;SDS011;4763;48.370;10.874;2022-12-07T07:16:07;17.27;;;9.90;;
9449;SDS011;4763;48.370;10.874;2022-12-07T07:18:34;15.40;;;10.37;;
9449;SDS011;4763;48.370;10.874;2022-12-07T07:21:00;18.30;;;10.17;;
9449;SDS011;4763;48.370;10.874;2022-12-07T07:23:28;20.00;;;10.47;;
9449;SDS011;4763;48.370;10.874;2022-12-07T07:25:55;15.30;;;9.83;;
9449;SDS011;4763;48.370;10.874;2022-12-07T07:28:22;17.80;;;10.37;;
9449;SDS011;4763;48.370;10.874;2022-12-07T07:30:49;15.27;;;9.47;;
9449;SDS011;4763;48.370;10.874;2022-12-07T07:33:16;16.83;;;10.30;;
9449;SDS011;4763;48.370;10.874;2022-12-07T07:35:43;18.10;;;10.43;;
9449;SDS011;4763;48.370;10.874;2022-12-07T07:38:10;16.03;;;9.80;;
9449;SDS011;4763;48.370;10.874;2022-12-07T07:40:38;18.50;;;10.40;;
9449;SDS011;4763;48.370;10.874;2022-12-07T07:43:04;15.53;;;9.80;;
9449;SDS011;4763;48.370;10.874;2022-12-07T07:45:31;19.50;;;10.20;;
9449;SDS011;4763;48.370;10.874;2022-12-07T07:47:58;18.63;;;10.13;;
9449;SDS011;4763;48.370;10.874;2022-12-07T07:50:25;18.63;;;11.33;;
9449;SDS011;4763;48.370;10.874;2022-12-07T07:52:52;18.53;;;9.67;;
9449;SDS011;4763;48.370;10.874;2022-12-07T07:55:18;18.43;;;11.07;;
9449;SDS011;4763;48.370;10.874;2022-12-07T07:57:46;19.17;;;11.27;;
9449;SDS011;4763;48.370;10.874;2022-12-07T08:00:14;17.93;;;9.60;;
9449;SDS011;4763;48.370;10.874;2022-12-07T08:02:42;17.17;;;11.20;;
9449;SDS011;4763;48.370;10.874;2022-12-07T08:05:09;18.43;;;11.17;;
9449;SDS011;4763;48.370;10.874;2022-12-07T08:07:37;16.20;;;11.10;;
9449;SDS011;4763;48.370;10.874;2022-12-07T08:10:04;18.33;;;10.90;;
9449;SDS011;4763;48.370;10.874;2022-12-07T08:12:35;17.83;;;10.47;;
9449;SDS011;4763;48.370;10.874;2022-12-07T08:15:24;15.60;;;9.90;;
9449;SDS011;4763;48.370;10.874;2022-12-07T08:17:51;19.83;;;10.93;;
9449;SDS011;4763;48.370;10.874;2022-12-07T08:20:18;17.17;;;10.50;;
9449;SDS011;4763;48.370;10.874;2022-12-07T08:22:45;14.97;;;8.90;;
9449;SDS011;4763;48.370;10.874;2022-12-07T08:25:12;16.93;;;9.83;;
9449;SDS011;4763;48.370;10.874;2022-12-07T08:27:38;15.93;;;9.90;;
9449;SDS011;4763;48.370;10.874;2022-12-07T08:30:06;17.03;;;10.10;;
9449;SDS011;4763;48.370;10.874;2022-12-07T08:32:35;19.03;;;9.93;;
9449;SDS011;4763;48.370;10.874;2022-12-07T08:35:01;18.40;;;10.93;;
9449;SDS011;4763;48.370;10.874;2022-12-07T08:37:28;16.80;;;10.43;;
9449;SDS011;4763;48.370;10.874;2022-12-07T08:39:55;20.90;;;10.97;;
9449;SDS011;4763;48.370;10.874;2022-12-07T08:42:22;15.13;;;9.47;;
9449;SDS011;4763;48.370;10.874;2022-12-07T08:44:52;15.77;;;9.63;;
9449;SDS011;4763;48.370;10.874;2022-12-07T08:47:19;17.27;;;10.83;;
9449;SDS011;4763;48.370;10.874;2022-12-07T08:49:47;18.27;;;11.17;;
9449;SDS011;4763;48.370;10.874;2022-12-07T08:52:17;16.80;;;10.37;;
9449;SDS011;4763;48.370;10.874;2022-12-07T08:54:44;14.90;;;10.07;;
9449;SDS011;4763;48.370;10.874;2022-12-07T08:57:11;16.17;;;9.60;;
9449;SDS011;4763;48.370;10.874;2022-12-07T08:59:38;16.63;;;9.87;;
9449;SDS011;4763;48.370;10.874;2022-12-07T09:02:05;14.93;;;9.03;;
9449;SDS011;4763;48.370;10.874;2022-12-07T09:04:32;14.80;;;8.80;;
9449;SDS011;4763;48.370;10.874;2022-12-07T09:07:00;14.13;;;8.53;;
9449;SDS011;4763;48.370;10.874;2022-12-07T09:09:28;17.17;;;10.73;;
9449;SDS011;4763;48.370;10.874;2022-12-07T09:11:55;17.53;;;9.80;;
9449;SDS011;4763;48.370;10.874;2022-12-07T09:14:22;13.17;;;8.57;;
9449;SDS011;4763;48.370;10.874;2022-12-07T09:16:48;12.73;;;8.63;;
9449;SDS011;4763;48.370;10.874;2022-12-07T09:19:16;15.03;;;8.83;;
9449;SDS011;4763;48.370;10.874;2022-12-07T09:21:42;14.00;;;8.93;;
9449;SDS011;4763;48.370;10.874;2022-12-07T09:24:11;13.67;;;9.13;;
9449;SDS011;4763;48.370;10.874;2022-12-07T09:26:37;14.27;;;8.97;;
9449;SDS011;4763;48.370;10.874;2022-12-07T09:29:05;11.90;;;8.27;;
9449;SDS011;4763;48.370;10.874;2022-12-07T09:31:32;17.37;;;13.47;;
9449;SDS011;4763;48.370;10.874;2022-12-07T09:33:59;15.10;;;11.83;;
9449;SDS011;4763;48.370;10.874;2022-12-07T09:36:27;13.93;;;8.60;;
9449;SDS011;4763;48.370;10.874;2022-12-07T09:38:54;11.83;;;8.00;;
9449;SDS011;4763;48.370;10.874;2022-12-07T09:41:23;12.40;;;7.83;;
9449;SDS011;4763;48.370;10.874;2022-12-07T09:43:51;12.90;;;8.43;;
9449;SDS011;4763;48.370;10.874;2022-12-07T09:46:19;15.67;;;9.53;;
9449;SDS011;4763;48.370;10.874;2022-12-07T09:48:47;13.47;;;8.37;;
9449;SDS011;4763;48.370;10.874;2022-12-07T09:51:16;9.87;;;7.20;;
9449;SDS011;4763;48.370;10.874;2022-12-07T09:53:45;9.77;;;7.57;;
9449;SDS011;4763;48.370;10.874;2022-12-07T09:56:13;11.70;;;7.97;;
9449;SDS011;4763;48.370;10.874;2022-12-07T09:58:42;11.37;;;7.23;;
9449;SDS011;4763;48.370;10.874;2022-12-07T10:01:11;10.53;;;7.03;;
9449;SDS011;4763;48.370;10.874;2022-12-07T10:03:40;11.03;;;7.13;;
9449;SDS011;4763;48.370;10.874;2022-12-07T10:06:13;9.73;;;7.20;;
9449;SDS011;4763;48.370;10.874;2022-12-07T10:08:40;12.73;;;7.47;;
9449;SDS011;4763;48.370;10.874;2022-12-07T10:11:08;14.80;;;8.73;;
9449;SDS011;4763;48.370;10.874;2022-12-07T10:13:37;12.77;;;8.20;;
9449;SDS011;4763;48.370;10.874;2022-12-07T10:16:08;12.80;;;7.97;;
9449;SDS011;4763;48.370;10.874;2022-12-07T10:18:57;9.67;;;6.47;;
9449;SDS011;4763;48.370;10.874;2022-12-07T10:21:47;9.70;;;5.77;;
9449;SDS011;4763;48.370;10.874;2022-12-07T10:24:26;8.27;;;5.90;;
9449;SDS011;4763;48.370;10.874;2022-12-07T10:26:53;7.43;;;4.70;;
9449;SDS011;4763;48.370;10.874;2022-12-07T10:29:21;8.67;;;5.00;;
9449;SDS011;4763;48.370;10.874;2022-12-07T10:31:52;7.50;;;5.20;;
9449;SDS011;4763;48.370;10.874;2022-12-07T10:34:24;37.47;;;18.90;;
9449;SDS011;4763;48.370;10.874;2022-12-07T10:36:54;9.27;;;5.63;;
9449;SDS011;4763;48.370;10.874;2022-12-07T10:39:40;7.63;;;6.17;;
9449;SDS011;4763;48.370;10.874;2022-12-07T10:42:15;9.03;;;6.10;;
9449;SDS011;4763;48.370;10.874;2022-12-07T10:44:43;7.80;;;5.37;;
9449;SDS011;4763;48.370;10.874;2022-12-07T10:47:31;7.63;;;5.20;;
9449;SDS011;4763;48.370;10.874;2022-12-07T10:50:06;7.00;;;4.90;;
9449;SDS011;4763;48.370;10.874;2022-12-07T10:55:55;6.87;;;4.80;;
9449;SDS011;4763;48.370;10.874;2022-12-07T11:01:22;6.93;;;5.03;;
9449;SDS011;4763;48.370;10.874;2022-12-07T11:04:07;8.07;;;5.77;;
9449;SDS011;4763;48.370;10.874;2022-12-07T11:06:52;9.13;;;6.20;;
9449;SDS011;4763;48.370;10.874;2022-12-07T11:09:30;11.07;;;7.40;;
9449;SDS011;4763;48.370;10.874;2022-12-07T11:12:16;10.00;;;6.00;;
9449;SDS011;4763;48.370;10.874;2022-12-07T11:14:55;10.27;;;6.10;;
9449;SDS011;4763;48.370;10.874;2022-12-07T11:17:29;7.60;;;4.40;;
9449;SDS011;4763;48.370;10.874;2022-12-07T11:20:05;7.23;;;5.00;;
9449;SDS011;4763;48.370;10.874;2022-12-07T11:22:44;8.13;;;5.40;;
9449;SDS011;4763;48.370;10.874;2022-12-07T11:25:18;10.33;;;6.20;;
9449;SDS011;4763;48.370;10.874;2022-12-07T11:27:56;8.63;;;5.70;;
9449;SDS011;4763;48.370;10.874;2022-12-07T11:30:37;7.80;;;4.90;;
9449;SDS011;4763;48.370;10.874;2022-12-07T11:33:11;12.27;;;5.30;;
9449;SDS011;4763;48.370;10.874;2022-12-07T11:35:52;8.27;;;5.00;;
9449;SDS011;4763;48.370;10.874;2022-12-07T11:38:26;8.73;;;4.43;;
9449;SDS011;4763;48.370;10.874;2022-12-07T11:41:04;6.87;;;5.30;;
9449;SDS011;4763;48.370;10.874;2022-12-07T11:43:41;12.63;;;7.80;;
9449;SDS011;4763;48.370;10.874;2022-12-07T11:46:22;17.60;;;11.73;;
9449;SDS011;4763;48.370;10.874;2022-12-07T11:48:52;34.47;;;21.90;;
9449;SDS011;4763;48.370;10.874;2022-12-07T11:51:29;19.03;;;14.03;;
9449;SDS011;4763;48.370;10.874;2022-12-07T11:54:01;16.60;;;10.57;;
9449;SDS011;4763;48.370;10.874;2022-12-07T11:56:31;14.43;;;9.23;;
9449;SDS011;4763;48.370;10.874;2022-12-07T11:59:04;11.13;;;7.53;;
9449;SDS011;4763;48.370;10.874;2022-12-07T12:01:41;9.83;;;7.63;;
9449;SDS011;4763;48.370;10.874;2022-12-07T12:04:18;10.50;;;6.03;;
9449;SDS011;4763;48.370;10.874;2022-12-07T12:06:56;8.80;;;5.60;;
9449;SDS011;4763;48.370;10.874;2022-12-07T12:09:25;12.90;;;6.13;;
9449;SDS011;4763;48.370;10.874;2022-12-07T12:15:04;8.53;;;5.07;;
9449;SDS011;4763;48.370;10.874;2022-12-07T12:17:48;8.77;;;5.00;;
9449;SDS011;4763;48.370;10.874;2022-12-07T12:20:31;9.87;;;6.00;;
9449;SDS011;4763;48.370;10.874;2022-12-07T12:23:06;13.03;;;7.90;;
9449;SDS011;4763;48.370;10.874;2022-12-07T12:25:38;11.90;;;6.90;;
9449;SDS011;4763;48.370;10.874;2022-12-07T12:28:16;11.30;;;6.80;;
9449;SDS011;4763;48.370;10.874;2022-12-07T12:30:49;9.87;;;6.20;;
9449;SDS011;4763;48.370;10.874;2022-12-07T12:33:31;9.13;;;5.87;;
9449;SDS011;4763;48.370;10.874;2022-12-07T12:38:49;11.30;;;5.60;;
9449;SDS011;4763;48.370;10.874;2022-12-07T12:44:39;8.73;;;4.60;;
9449;SDS011;4763;48.370;10.874;2022-12-07T12:50:29;12.70;;;6.60;;
9449;SDS011;4763;48.370;10.874;2022-12-07T12:52:58;12.67;;;6.53;;
9449;SDS011;4763;48.370;10.874;2022-12-07T12:58:35;6.97;;;4.87;;
9449;SDS011;4763;48.370;10.874;2022-12-07T13:07:13;9.73;;;6.03;;
9449;SDS011;4763;48.370;10.874;2022-12-07T13:10:31;18.33;;;9.10;;
9449;SDS011;4763;48.370;10.874;2022-12-07T13:22:34;6.97;;;4.53;;
9449;SDS011;4763;48.370;10.874;2022-12-07T13:25:09;6.37;;;4.10;;
9449;SDS011;4763;48.370;10.874;2022-12-07T13:27:39;10.83;;;5.30;;
9449;SDS011;4763;48.370;10.874;2022-12-07T13:30:14;6.17;;;4.50;;
9449;SDS011;4763;48.370;10.874;2022-12-07T13:32:43;6.60;;;4.47;;
9449;SDS011;4763;48.370;10.874;2022-12-07T13:35:33;7.30;;;4.20;;
9449;SDS011;4763;48.370;10.874;2022-12-07T13:38:03;11.27;;;5.40;;
9449;SDS011;4763;48.370;10.874;2022-12-07T13:40:41;9.57;;;5.00;;
9449;SDS011;4763;48.370;10.874;2022-12-07T13:43:12;10.03;;;6.00;;
9449;SDS011;4763;48.370;10.874;2022-12-07T13:45:42;14.60;;;8.60;;
9449;SDS011;4763;48.370;10.874;2022-12-07T13:48:18;12.60;;;8.47;;
9449;SDS011;4763;48.370;10.874;2022-12-07T13:50:53;13.90;;;8.07;;
9449;SDS011;4763;48.370;10.874;2022-12-07T13:53:21;12.53;;;6.07;;
9449;SDS011;4763;48.370;10.874;2022-12-07T13:55:48;7.87;;;5.20;;
9449;SDS011;4763;48.370;10.874;2022-12-07T13:58:15;11.70;;;7.27;;
9449;SDS011;4763;48.370;10.874;2022-12-07T14:00:44;19.23;;;11.80;;
9449;SDS011;4763;48.370;10.874;2022-12-07T14:03:27;9.07;;;6.47;;
9449;SDS011;4763;48.370;10.874;2022-12-07T14:09:14;14.40;;;8.10;;
9449;SDS011;4763;48.370;10.874;2022-12-07T14:11:44;9.20;;;6.90;;
9449;SDS011;4763;48.370;10.874;2022-12-07T14:14:13;10.63;;;5.90;;
9449;SDS011;4763;48.370;10.874;2022-12-07T14:16:54;11.20;;;6.17;;
9449;SDS011;4763;48.370;10.874;2022-12-07T14:19:44;7.57;;;5.23;;
9449;SDS011;4763;48.370;10.874;2022-12-07T14:25:16;8.47;;;5.00;;
9449;SDS011;4763;48.370;10.874;2022-12-07T14:27:50;11.87;;;6.63;;
9449;SDS011;4763;48.370;10.874;2022-12-07T14:30:20;39.77;;;17.93;;
9449;SDS011;4763;48.370;10.874;2022-12-07T14:32:50;38.77;;;19.20;;
9449;SDS011;4763;48.370;10.874;2022-12-07T14:35:19;14.47;;;7.93;;
9449;SDS011;4763;48.370;10.874;2022-12-07T14:37:47;10.47;;;5.57;;
9449;SDS011;4763;48.370;10.874;2022-12-07T14:40:16;7.10;;;4.50;;
9449;SDS011;4763;48.370;10.874;2022-12-07T14:42:44;10.10;;;4.77;;
9449;SDS011;4763;48.370;10.874;2022-12-07T14:45:13;10.83;;;5.90;;
9449;SDS011;4763;48.370;10.874;2022-12-07T14:47:41;7.57;;;5.00;;
9449;SDS011;4763;48.370;10.874;2022-12-07T14:50:11;8.83;;;6.07;;
9449;SDS011;4763;48.370;10.874;2022-12-07T14:52:39;20.10;;;10.13;;
9449;SDS011;4763;48.370;10.874;2022-12-07T14:55:12;8.27;;;4.37;;
9449;SDS011;4763;48.370;10.874;2022-12-07T14:57:46;8.90;;;5.43;;
9449;SDS011;4763;48.370;10.874;2022-12-07T15:00:13;31.27;;;14.07;;
9449;SDS011;4763;48.370;10.874;2022-12-07T15:02:42;14.13;;;7.53;;
9449;SDS011;4763;48.370;10.874;2022-12-07T15:05:09;16.43;;;8.07;;
9449;SDS011;4763;48.370;10.874;2022-12-07T15:07:38;18.40;;;9.77;;
9449;SDS011;4763;48.370;10.874;2022-12-07T15:10:08;17.10;;;10.00;;
9449;SDS011;4763;48.370;10.874;2022-12-07T15:12:41;17.40;;;8.33;;
9449;SDS011;4763;48.370;10.874;2022-12-07T15:15:08;7.33;;;4.37;;
9449;SDS011;4763;48.370;10.874;2022-12-07T15:17:35;7.13;;;4.20;;
9449;SDS011;4763;48.370;10.874;2022-12-07T15:20:02;10.03;;;5.20;;
9449;SDS011;4763;48.370;10.874;2022-12-07T15:22:31;7.63;;;5.00;;
9449;SDS011;4763;48.370;10.874;2022-12-07T15:24:58;7.97;;;4.90;;
9449;SDS011;4763;48.370;10.874;2022-12-07T15:27:25;7.53;;;4.90;;
9449;SDS011;4763;48.370;10.874;2022-12-07T15:29:54;15.83;;;7.60;;
9449;SDS011;4763;48.370;10.874;2022-12-07T15:32:21;15.90;;;7.27;;
9449;SDS011;4763;48.370;10.874;2022-12-07T15:34:48;7.70;;;4.50;;
9449;SDS011;4763;48.370;10.874;2022-12-07T15:37:16;33.27;;;17.20;;
9449;SDS011;4763;48.370;10.874;2022-12-07T15:39:44;16.93;;;10.37;;
9449;SDS011;4763;48.370;10.874;2022-12-07T15:42:10;23.70;;;13.80;;
9449;SDS011;4763;48.370;10.874;2022-12-07T15:44:37;15.60;;;8.97;;
9449;SDS011;4763;48.370;10.874;2022-12-07T15:47:18;14.27;;;9.37;;
9449;SDS011;4763;48.370;10.874;2022-12-07T15:49:45;18.97;;;10.20;;
9449;SDS011;4763;48.370;10.874;2022-12-07T15:52:12;13.10;;;8.43;;
9449;SDS011;4763;48.370;10.874;2022-12-07T15:54:40;14.10;;;7.43;;